Time;durP1;ratioP1;P1;durP2;ratioP2;P2;SDS_P1;SDS_P2;PMS_P1;PMS_P2;Temp;Humidity;BMP_temperature;BMP_pressure;BME280_temperature;BME280_humidity;BME280_pressure;Samples;Min_cycle;Max_cycle;Signal;HPM_P1;HPM_P2
2021/10/01 00:00:59;;;;;;;0.10;0.10;;;;;;;16.70;49.55;101839.88;5040601;28;20025;-81
2021/10/01 00:03:25;;;;;;;0.00;0.00;;;;;;;16.72;49.38;101826.44;5033814;28;20100;-81
2021/10/01 00:05:52;;;;;;;0.10;0.10;;;;;;;16.62;49.15;101831.19;5039505;28;20098;-81
2021/10/01 00:08:22;;;;;;;0.17;0.17;;;;;;;16.74;49.18;101829.97;5055782;28;20040;-81
2021/10/01 00:10:48;;;;;;;0.03;0.03;;;;;;;16.65;49.27;101820.41;5034422;28;20018;-80
2021/10/01 00:13:15;;;;;;;0.00;0.00;;;;;;;16.72;49.66;101816.59;5033374;28;20029;-81
2021/10/01 00:15:43;;;;;;;0.08;0.08;;;;;;;16.86;49.58;101816.22;5032155;28;20120;-81
2021/10/01 00:18:11;;;;;;;0.10;0.10;;;;;;;16.75;49.64;101810.31;5031359;28;20029;-80
2021/10/01 00:20:38;;;;;;;0.00;0.00;;;;;;;16.84;49.71;101812.69;5029788;28;20089;-81
2021/10/01 00:23:05;;;;;;;0.00;0.00;;;;;;;16.65;49.82;101809.72;5031193;28;20056;-81
2021/10/01 00:25:31;;;;;;;0.10;0.10;;;;;;;16.70;49.64;101809.53;5029220;28;20068;-80
2021/10/01 00:27:57;;;;;;;0.10;0.10;;;;;;;16.80;49.69;101811.91;5030477;28;20055;-80
2021/10/01 00:30:25;;;;;;;0.00;0.00;;;;;;;16.76;50.28;101804.91;5032125;28;20389;-81
2021/10/01 00:32:52;;;;;;;0.00;0.00;;;;;;;16.65;50.82;101804.34;5029467;28;20466;-81
2021/10/01 00:35:20;;;;;;;0.00;0.00;;;;;;;16.63;51.88;101800.84;5053959;22;20048;-86
2021/10/01 00:37:47;;;;;;;0.00;0.00;;;;;;;16.62;51.89;101797.28;5050846;28;20067;-86
2021/10/01 00:40:14;;;;;;;0.00;0.00;;;;;;;16.45;53.04;101797.78;5053323;28;20029;-87
2021/10/01 00:42:41;;;;;;;0.00;0.00;;;;;;;16.39;52.78;101797.09;5051471;28;20045;-87
2021/10/01 00:45:08;;;;;;;0.10;0.10;;;;;;;16.26;53.05;101791.22;5047662;28;20041;-87
2021/10/01 00:47:35;;;;;;;0.10;0.10;;;;;;;16.25;52.77;101795.69;5049103;28;20024;-86
2021/10/01 00:50:01;;;;;;;0.03;0.03;;;;;;;16.12;53.85;101795.16;5044089;28;20120;-86
2021/10/01 00:52:28;;;;;;;0.10;0.10;;;;;;;16.10;54.03;101788.09;5045339;28;20537;-86
2021/10/01 00:54:55;;;;;;;0.20;0.20;;;;;;;16.13;54.07;101796.91;5044238;28;20032;-86
2021/10/01 00:57:21;;;;;;;0.00;0.00;;;;;;;16.07;53.75;101781.03;5042973;28;20484;-86
2021/10/01 00:59:47;;;;;;;0.10;0.10;;;;;;;16.16;54.14;101777.22;5042424;28;20067;-86
2021/10/01 01:02:14;;;;;;;0.10;0.10;;;;;;;16.11;53.91;101772.03;5043495;28;20104;-87
2021/10/01 01:04:44;;;;;;;0.10;0.10;;;;;;;16.19;53.56;101771.81;5042128;28;20041;-88
2021/10/01 01:07:50;;;;;;;0.20;0.20;;;;;;;16.25;53.97;101768.06;5046385;28;20087;-87
2021/10/01 01:10:29;;;;;;;0.10;0.10;;;;;;;16.26;53.55;101770.72;5042011;28;20155;-87
2021/10/01 01:13:05;;;;;;;0.00;0.00;;;;;;;16.20;53.96;101761.97;5044992;28;20040;-87
2021/10/01 01:15:37;;;;;;;0.00;0.00;;;;;;;16.23;53.91;101761.91;5045778;28;20487;-87
2021/10/01 01:18:08;;;;;;;0.20;0.20;;;;;;;16.23;54.54;101760.09;5044387;28;20466;-88
2021/10/01 01:20:47;;;;;;;0.05;0.05;;;;;;;16.32;53.35;101758.94;5043078;28;20036;-87
2021/10/01 01:29:24;;;;;;;0.35;0.35;;;;;;;16.42;54.05;101747.03;5072137;27;20469;-88
2021/10/01 01:34:48;;;;;;;0.10;0.10;;;;;;;16.30;54.48;101744.75;5091324;27;20407;-87
2021/10/01 01:37:23;;;;;;;0.10;0.10;;;;;;;16.30;54.26;101745.63;5036709;28;20033;-88
2021/10/01 01:39:52;;;;;;;0.03;0.03;;;;;;;16.23;54.92;101740.50;5050591;28;20056;-88
2021/10/01 01:42:20;;;;;;;0.85;0.85;;;;;;;16.21;54.68;101734.31;5049631;28;20087;-88
2021/10/01 01:44:48;;;;;;;0.10;0.10;;;;;;;16.23;54.66;101737.84;5050930;28;20116;-87
2021/10/01 01:47:15;;;;;;;0.20;0.20;;;;;;;16.21;54.56;101734.31;5048321;28;20022;-88
2021/10/01 01:49:43;;;;;;;0.90;0.90;;;;;;;16.14;54.61;101734.50;5049979;28;20029;-88
2021/10/01 01:52:12;;;;;;;0.00;0.00;;;;;;;16.11;55.03;101733.72;5051316;28;20499;-88
2021/10/01 01:54:40;;;;;;;0.00;0.00;;;;;;;16.15;54.79;101720.22;5050996;28;20051;-88
2021/10/01 01:57:08;;;;;;;0.10;0.10;;;;;;;16.14;54.76;101723.81;5049891;28;20037;-87
2021/10/01 01:59:36;;;;;;;0.15;0.15;;;;;;;16.10;54.65;101715.91;5049544;28;20052;-85
2021/10/01 02:02:03;;;;;;;0.10;0.10;;;;;;;16.04;55.12;101705.41;5049878;28;20112;-87
2021/10/01 02:04:30;;;;;;;0.10;0.10;;;;;;;16.08;54.83;101707.09;5049559;22;20057;-82
2021/10/01 02:06:57;;;;;;;0.00;0.00;;;;;;;16.03;54.80;101709.88;5007576;28;20049;-82
2021/10/01 02:09:26;;;;;;;0.10;0.10;;;;;;;15.97;54.95;101688.69;5006888;28;20701;-81
2021/10/01 02:11:52;;;;;;;0.05;0.05;;;;;;;15.92;54.88;101695.97;5010356;28;20547;-80
2021/10/01 02:14:25;;;;;;;0.28;0.28;;;;;;;15.69;55.52;101694.78;5009711;28;20042;-81
2021/10/01 02:16:54;;;;;;;0.10;0.10;;;;;;;15.73;55.23;101695.56;5010051;28;20036;-81
2021/10/01 02:19:22;;;;;;;0.10;0.10;;;;;;;15.72;55.05;101684.00;5009610;28;20366;-81
2021/10/01 02:21:50;;;;;;;0.00;0.00;;;;;;;15.70;55.15;101691.16;5009723;28;20109;-80
2021/10/01 02:24:17;;;;;;;0.10;0.10;;;;;;;15.66;55.28;101687.72;5009490;28;20030;-82
2021/10/01 02:26:55;;;;;;;0.00;0.00;;;;;;;15.53;55.74;101679.16;5009302;28;20030;-80
2021/10/01 02:29:47;;;;;;;0.10;0.10;;;;;;;15.56;55.55;101674.66;4999203;28;20033;-81
2021/10/01 02:32:39;;;;;;;0.00;0.00;;;;;;;15.48;55.60;101672.22;5009035;28;20072;-81
2021/10/01 02:35:09;;;;;;;0.10;0.10;;;;;;;15.43;56.05;101669.66;4996602;28;20050;-82
2021/10/01 02:37:35;;;;;;;0.10;0.10;;;;;;;15.39;55.94;101665.31;5009495;28;20034;-79
2021/10/01 02:40:03;;;;;;;0.10;0.10;;;;;;;15.32;56.06;101663.72;5009697;28;20532;-80
2021/10/01 02:42:29;;;;;;;0.50;0.50;;;;;;;15.19;56.27;101661.38;5009090;28;20045;-81
2021/10/01 02:44:57;;;;;;;0.68;0.40;;;;;;;15.21;56.34;101650.66;5001807;28;20042;-79
2021/10/01 02:47:30;;;;;;;0.10;0.10;;;;;;;15.18;56.11;101646.28;4996397;28;20056;-81
2021/10/01 02:49:58;;;;;;;0.20;0.20;;;;;;;15.05;56.71;101644.84;4996317;28;20121;-82
2021/10/01 02:55:25;;;;;;;0.10;0.10;;;;;;;15.02;57.09;101632.47;5034601;28;20876;-82
2021/10/01 02:58:06;;;;;;;0.10;0.10;;;;;;;14.96;57.04;101627.28;5023957;28;20048;-81
2021/10/01 03:00:34;;;;;;;0.00;0.00;;;;;;;14.85;57.54;101626.69;5030230;28;20033;-81
2021/10/01 03:03:05;;;;;;;4.10;0.32;;;;;;;14.86;57.08;101618.63;5027898;28;20473;-82
2021/10/01 03:05:32;;;;;;;0.10;0.10;;;;;;;14.81;57.40;101612.53;5027602;28;20029;-82
2021/10/01 03:07:59;;;;;;;0.10;0.10;;;;;;;14.79;57.70;101610.81;5027579;28;20496;-81
2021/10/01 03:10:26;;;;;;;0.10;0.10;;;;;;;14.73;57.82;101606.53;5032489;28;20084;-80
2021/10/01 03:12:59;;;;;;;0.08;0.08;;;;;;;14.77;57.81;101602.00;5022341;28;20133;-81
2021/10/01 03:15:25;;;;;;;0.03;0.03;;;;;;;14.76;57.64;101593.09;5013231;28;20109;-82
2021/10/01 03:17:52;;;;;;;0.10;0.10;;;;;;;14.69;57.74;101584.41;5013139;28;20030;-82
2021/10/01 03:20:19;;;;;;;0.68;0.68;;;;;;;14.59;57.98;101582.81;5014886;28;20029;-82
2021/10/01 03:22:47;;;;;;;0.00;0.00;;;;;;;14.66;57.58;101584.47;5003408;28;20385;-82
2021/10/01 03:25:13;;;;;;;0.10;0.10;;;;;;;14.65;58.00;101581.84;5018198;28;20018;-81
2021/10/01 03:27:40;;;;;;;0.17;0.17;;;;;;;14.55;57.89;101582.06;5021871;28;20026;-81
2021/10/01 03:30:09;;;;;;;0.10;0.10;;;;;;;14.62;57.77;101580.09;5004593;28;20040;-82
2021/10/01 03:32:44;;;;;;;0.20;0.20;;;;;;;14.60;58.16;101581.91;5026001;28;20535;-81
2021/10/01 03:35:18;;;;;;;0.10;0.10;;;;;;;14.68;57.51;101579.13;5011947;28;20034;-81
2021/10/01 03:37:48;;;;;;;0.45;0.45;;;;;;;14.63;58.09;101580.97;5011560;28;20027;-81
2021/10/01 03:40:21;;;;;;;0.08;0.08;;;;;;;14.62;57.92;101582.75;5008595;28;20163;-80
2021/10/01 03:42:47;;;;;;;1.40;0.93;;;;;;;14.59;57.73;101577.50;5027168;28;20500;-82
2021/10/01 03:45:14;;;;;;;0.10;0.10;;;;;;;14.54;58.08;101580.28;5025635;28;20121;-82
2021/10/01 03:47:40;;;;;;;0.03;0.03;;;;;;;14.47;58.25;101568.03;5019389;28;20038;-81
2021/10/01 03:50:08;;;;;;;0.00;0.00;;;;;;;14.54;58.19;101564.28;5010919;28;20057;-81
2021/10/01 03:52:34;;;;;;;0.10;0.10;;;;;;;14.48;58.62;101569.78;5012073;28;20034;-81
2021/10/01 03:55:03;;;;;;;0.10;0.10;;;;;;;14.56;57.92;101567.78;5046514;28;20519;-81
2021/10/01 03:57:29;;;;;;;0.00;0.00;;;;;;;14.53;58.18;101559.00;5054293;28;20035;-80
2021/10/01 03:59:55;;;;;;;0.35;0.35;;;;;;;14.52;58.30;101554.59;5046842;28;20037;-82
2021/10/01 04:02:21;;;;;;;0.00;0.00;;;;;;;14.55;58.12;101555.38;5046957;28;20029;-82
2021/10/01 04:04:47;;;;;;;0.00;0.00;;;;;;;14.40;58.23;101543.31;5041520;28;20042;-83
2021/10/01 04:07:15;;;;;;;0.00;0.00;;;;;;;14.44;58.26;101537.88;5035158;28;20033;-83
2021/10/01 04:09:41;;;;;;;0.00;0.00;;;;;;;14.48;58.29;101548.44;5025726;28;20038;-83
2021/10/01 04:12:08;;;;;;;0.00;0.00;;;;;;;14.55;58.21;101539.38;5017583;28;20022;-80
2021/10/01 04:14:35;;;;;;;0.00;0.00;;;;;;;14.51;58.38;101531.50;5018822;28;20042;-82
2021/10/01 04:17:01;;;;;;;0.00;0.00;;;;;;;14.62;58.01;101547.22;5017773;28;20030;-80
2021/10/01 04:19:27;;;;;;;0.10;0.10;;;;;;;14.61;58.26;101550.81;5017629;28;20026;-81
2021/10/01 04:21:53;;;;;;;0.10;0.10;;;;;;;14.60;58.16;101547.25;5017019;28;20056;-81
2021/10/01 04:24:20;;;;;;;0.10;0.10;;;;;;;14.62;57.84;101556.09;5017505;28;20026;-81
2021/10/01 04:26:46;;;;;;;0.10;0.10;;;;;;;14.66;57.71;101538.25;5018709;28;20036;-81
2021/10/01 04:29:12;;;;;;;0.20;0.20;;;;;;;14.65;57.88;101537.38;5020657;28;20069;-81
2021/10/01 04:31:38;;;;;;;1.45;1.35;;;;;;;14.61;57.70;101533.00;5033437;28;20104;-81
2021/10/01 04:34:04;;;;;;;0.10;0.10;;;;;;;14.67;57.66;101532.00;5033501;28;20057;-82
2021/10/01 04:36:32;;;;;;;0.05;0.05;;;;;;;14.62;57.86;101536.56;5032398;28;20025;-82
2021/10/01 04:38:58;;;;;;;0.00;0.00;;;;;;;14.72;57.57;101540.75;5032932;28;20056;-81
2021/10/01 04:41:24;;;;;;;0.20;0.20;;;;;;;14.63;57.66;101536.50;5033266;28;20393;-81
2021/10/01 04:43:50;;;;;;;0.40;0.40;;;;;;;14.66;57.63;101543.59;5033372;28;20499;-81
2021/10/01 04:46:17;;;;;;;0.10;0.10;;;;;;;14.61;57.24;101542.81;5033391;28;20396;-80
2021/10/01 04:48:43;;;;;;;0.10;0.10;;;;;;;14.66;57.37;101540.94;5030059;28;20401;-80
2021/10/01 04:51:21;;;;;;;0.00;0.00;;;;;;;14.69;57.59;101540.81;5026652;28;20068;-80
2021/10/01 04:53:47;;;;;;;0.85;0.85;;;;;;;14.67;57.32;101537.34;5016365;28;20048;-82
2021/10/01 04:56:14;;;;;;;0.00;0.00;;;;;;;14.66;57.34;101527.59;5027432;28;20056;-81
2021/10/01 04:58:40;;;;;;;0.10;0.10;;;;;;;14.59;57.55;101533.97;5031086;28;20040;-82
2021/10/01 05:01:06;;;;;;;0.10;0.10;;;;;;;14.62;57.73;101534.75;5033195;28;20388;-81
2021/10/01 05:03:33;;;;;;;0.22;0.22;;;;;;;14.62;57.76;101539.22;5033149;28;20029;-81
2021/10/01 05:05:59;;;;;;;0.08;0.08;;;;;;;14.54;57.67;101532.28;5033461;28;20456;-80
2021/10/01 05:11:11;;;;;;;3.42;0.63;;;;;;;14.62;57.54;101528.56;5016323;28;20030;-82
2021/10/01 05:13:37;;;;;;;1.65;1.55;;;;;;;14.63;57.62;101522.28;5032069;28;20056;-81
2021/10/01 05:16:04;;;;;;;0.88;0.88;;;;;;;14.65;57.58;101533.84;5032562;28;20488;-82
2021/10/01 05:18:30;;;;;;;0.00;0.00;;;;;;;14.69;57.30;101524.81;5031079;28;20108;-81
2021/10/01 05:21:02;;;;;;;0.00;0.00;;;;;;;14.64;57.53;101516.03;5031896;28;20034;-81
2021/10/01 05:23:29;;;;;;;0.10;0.10;;;;;;;14.63;57.78;101530.28;5032196;28;20038;-81
2021/10/01 05:25:56;;;;;;;0.10;0.10;;;;;;;14.76;57.55;101534.41;5032380;28;20026;-82
2021/10/01 05:28:22;;;;;;;0.08;0.08;;;;;;;14.73;57.43;101523.84;5031473;28;20473;-81
2021/10/01 05:30:48;;;;;;;0.10;0.10;;;;;;;14.81;57.12;101524.50;5017291;28;20025;-81
2021/10/01 05:33:14;;;;;;;0.10;0.10;;;;;;;14.78;57.52;101524.59;5015878;28;20377;-82
2021/10/01 05:35:43;;;;;;;0.20;0.20;;;;;;;14.85;57.58;101519.97;5015635;28;20034;-81
2021/10/01 05:38:11;;;;;;;0.10;0.10;;;;;;;14.83;57.37;101519.16;5016059;28;20393;-80
2021/10/01 05:40:38;;;;;;;0.08;0.08;;;;;;;14.88;57.52;101520.75;5017431;28;20069;-80
2021/10/01 05:43:05;;;;;;;0.10;0.10;;;;;;;14.94;57.25;101514.41;5015695;28;20101;-81
2021/10/01 05:45:33;;;;;;;0.10;0.10;;;;;;;14.99;56.62;101515.13;5032233;28;20544;-81
2021/10/01 05:48:00;;;;;;;0.10;0.10;;;;;;;15.01;56.81;101509.75;5022512;28;20164;-82
2021/10/01 05:50:29;;;;;;;0.10;0.10;;;;;;;14.86;56.84;101511.91;5016235;28;20480;-82
2021/10/01 05:53:02;;;;;;;0.10;0.10;;;;;;;14.93;56.86;101501.06;5016154;28;20038;-81
2021/10/01 05:55:29;;;;;;;0.08;0.08;;;;;;;14.87;56.97;101503.00;5015915;28;20022;-82
2021/10/01 05:57:55;;;;;;;0.10;0.10;;;;;;;14.87;56.74;101505.66;5029796;28;20393;-81
2021/10/01 06:00:22;;;;;;;0.10;0.10;;;;;;;14.78;56.93;101499.69;5030658;28;20041;-81
2021/10/01 06:02:48;;;;;;;0.00;0.00;;;;;;;14.84;57.06;101502.19;5016618;28;20026;-81
2021/10/01 06:05:16;;;;;;;0.05;0.05;;;;;;;14.85;57.28;101494.19;5015345;28;20413;-81
2021/10/01 06:07:43;;;;;;;3.55;1.85;;;;;;;14.82;57.25;101493.38;5015290;28;20116;-82
2021/10/01 06:10:11;;;;;;;0.10;0.10;;;;;;;14.79;57.27;101483.69;5034622;28;20053;-82
2021/10/01 06:12:39;;;;;;;0.00;0.00;;;;;;;14.76;57.82;101494.41;5018420;28;20077;-82
2021/10/01 06:15:06;;;;;;;0.10;0.10;;;;;;;14.81;57.19;101492.50;5014848;28;20053;-81
2021/10/01 06:17:32;;;;;;;0.10;0.10;;;;;;;14.83;57.08;101498.66;5015132;28;20033;-82
2021/10/01 06:20:01;;;;;;;0.00;0.00;;;;;;;14.84;57.17;101499.53;5013834;28;20029;-81
2021/10/01 06:22:27;;;;;;;0.00;0.00;;;;;;;14.86;57.00;101501.22;5015711;28;20026;-81
2021/10/01 06:24:53;;;;;;;0.10;0.10;;;;;;;14.87;56.84;101497.66;5016195;28;20400;-83
2021/10/01 06:27:20;;;;;;;0.10;0.10;;;;;;;14.92;56.87;101499.34;5014783;28;20026;-81
2021/10/01 06:29:46;;;;;;;0.00;0.00;;;;;;;14.94;56.74;101497.50;5022482;28;20033;-82
2021/10/01 06:32:13;;;;;;;0.10;0.10;;;;;;;15.01;56.94;101502.59;5026006;28;20034;-80
2021/10/01 06:34:39;;;;;;;0.10;0.10;;;;;;;15.06;56.70;101494.47;5012287;23;20062;-87
2021/10/01 06:37:05;;;;;;;0.10;0.10;;;;;;;15.05;56.75;101506.06;4955843;28;20110;-91
2021/10/01 06:39:32;;;;;;;0.10;0.10;;;;;;;15.13;56.49;101504.06;4954632;29;20122;-90
2021/10/01 06:41:58;;;;;;;0.10;0.10;;;;;;;15.20;56.35;101494.97;4955083;28;20102;-90
2021/10/01 06:44:27;;;;;;;0.00;0.00;;;;;;;15.23;56.79;101493.09;4948444;28;20390;-91
2021/10/01 06:46:59;;;;;;;0.10;0.10;;;;;;;15.29;56.27;101493.81;4935763;29;20031;-90
2021/10/01 06:52:28;;;;;;;0.00;0.00;;;;;;;15.44;56.16;101481.81;5083158;28;20416;-90
2021/10/01 08:20:41;;;;;;;0.10;0.10;;;;;;;16.74;53.99;101460.69;4995668;28;20054;-77
2021/10/01 08:23:08;;;;;;;1.98;1.45;;;;;;;16.81;53.52;101460.38;5009342;28;20068;-77
2021/10/01 08:25:34;;;;;;;0.10;0.10;;;;;;;16.77;53.85;101471.25;5009764;28;20478;-76
2021/10/01 08:28:02;;;;;;;2.63;0.70;;;;;;;16.87;53.87;101464.63;5009994;28;20060;-77
2021/10/01 08:30:28;;;;;;;0.03;0.03;;;;;;;16.97;53.67;101457.16;5009529;28;20064;-79
2021/10/01 08:32:55;;;;;;;0.00;0.00;;;;;;;16.82;53.78;101456.78;5009501;28;20056;-78
2021/10/01 08:35:24;;;;;;;0.05;0.05;;;;;;;16.97;53.76;101451.81;5005679;28;20065;-79
2021/10/01 08:37:52;;;;;;;0.10;0.10;;;;;;;16.94;53.73;101449.28;5004543;28;20037;-77
2021/10/01 08:40:19;;;;;;;0.10;0.10;;;;;;;17.02;53.48;101454.34;4997077;28;20031;-79
2021/10/01 08:42:47;;;;;;;0.10;0.10;;;;;;;16.98;53.28;101448.22;5023531;28;20053;-78
2021/10/01 08:45:15;;;;;;;1.65;1.38;;;;;;;17.19;53.57;101441.19;5008830;28;20034;-79
2021/10/01 08:47:42;;;;;;;0.10;0.10;;;;;;;17.27;53.67;101440.88;5002982;28;20041;-78
2021/10/01 08:50:11;;;;;;;0.10;0.10;;;;;;;17.42;53.11;101445.66;5006421;28;20431;-77
2021/10/01 08:52:41;;;;;;;0.90;0.90;;;;;;;17.52;53.07;101447.97;5016223;28;20057;-80
2021/10/01 08:55:09;;;;;;;0.10;0.10;;;;;;;17.52;53.06;101454.22;5009080;28;20056;-80
2021/10/01 08:57:36;;;;;;;0.10;0.10;;;;;;;17.59;53.01;101455.69;5001870;28;20490;-83
2021/10/01 09:00:08;;;;;;;1.85;1.75;;;;;;;17.62;52.72;101441.31;4994918;28;20060;-86
2021/10/01 09:02:34;;;;;;;;;;;;;;;17.92;52.17;101432.97;5008064;28;20062;-84
2021/10/01 09:05:01;;;;;;;0.90;0.17;;;;;;;17.97;52.11;101438.16;4996461;28;19917;-83
2021/10/01 09:07:27;;;;;;;0.10;0.10;;;;;;;17.85;52.50;101424.28;4999259;28;20118;-85
2021/10/01 09:09:55;;;;;;;0.15;0.15;;;;;;;17.96;52.16;101426.56;4996299;28;20105;-84
2021/10/01 09:12:22;;;;;;;0.32;0.32;;;;;;;18.13;51.94;101433.91;5000325;28;20093;-86
2021/10/01 09:14:56;;;;;;;0.10;0.10;;;;;;;18.28;51.89;101427.03;4996375;28;20031;-83
2021/10/01 09:17:25;;;;;;;0.68;0.68;;;;;;;18.15;52.03;101439.19;5006623;28;20482;-84
2021/10/01 09:19:53;;;;;;;0.00;0.00;;;;;;;18.27;52.24;101427.94;5002532;28;20033;-83
2021/10/01 09:22:28;;;;;;;0.10;0.10;;;;;;;18.40;52.21;101431.81;5005759;28;20030;-88
2021/10/01 09:25:18;;;;;;;0.10;0.10;;;;;;;18.40;52.38;101420.22;4996578;28;20026;-82
2021/10/01 09:27:48;;;;;;;0.28;0.28;;;;;;;18.35;52.51;101420.44;5002096;28;20033;-86
2021/10/01 09:30:20;;;;;;;0.00;0.00;;;;;;;18.41;53.08;101412.09;5003257;28;20054;-86
2021/10/01 09:33:10;;;;;;;0.10;0.10;;;;;;;18.33;52.44;101403.53;5004143;28;20109;-87
2021/10/01 09:35:37;;;;;;;3.38;1.30;;;;;;;18.27;52.80;101403.81;5042325;22;20041;-85
2021/10/01 09:38:06;;;;;;;0.55;0.28;;;;;;;18.35;52.98;101406.16;5038208;28;20037;-85
2021/10/01 09:40:33;;;;;;;0.10;0.10;;;;;;;18.60;53.04;101395.19;5034096;28;20112;-85
2021/10/01 09:43:00;;;;;;;0.10;0.10;;;;;;;18.85;52.47;101396.75;5032966;28;20105;-85
2021/10/01 09:45:26;;;;;;;0.20;0.20;;;;;;;18.88;52.00;101396.66;5024040;28;20026;-85
2021/10/01 09:47:52;;;;;;;0.25;0.25;;;;;;;19.19;52.22;101396.09;5014976;28;20030;-86
2021/10/01 09:50:30;;;;;;;0.10;0.10;;;;;;;19.36;51.63;101406.03;5024851;28;20060;-86
2021/10/01 09:53:01;;;;;;;0.10;0.10;;;;;;;19.26;51.50;101393.97;5033404;28;20026;-86
2021/10/01 09:58:13;;;;;;;0.40;0.40;;;;;;;18.97;51.97;101398.91;5064582;28;20473;-86
2021/10/01 10:00:44;;;;;;;0.10;0.10;;;;;;;18.83;52.40;101393.28;5060334;28;20028;-83
2021/10/01 10:08:47;;;;;;;0.10;0.10;;;;;;;18.39;53.84;101413.13;5148722;27;20871;-81
2021/10/01 10:11:18;;;;;;;0.10;0.10;;;;;;;18.30;53.97;101406.34;5138475;27;20033;-85
2021/10/01 10:13:47;;;;;;;0.10;0.10;;;;;;;18.17;55.42;101407.81;5152092;27;20084;-84
2021/10/01 10:19:01;;;;;;;0.10;0.10;;;;;;;17.85;58.27;101404.66;5103201;27;20423;-80
2021/10/01 10:21:28;;;;;;;0.25;0.25;;;;;;;17.72;59.52;101405.16;5083674;28;20035;-86
2021/10/01 10:23:55;;;;;;;0.10;0.10;;;;;;;17.55;59.91;101399.63;5079216;28;20043;-87
2021/10/01 10:26:22;;;;;;;0.20;0.20;;;;;;;17.53;60.30;101401.47;5080425;28;20536;-88
2021/10/01 10:28:49;;;;;;;0.10;0.10;;;;;;;17.49;60.80;101395.38;5079893;28;20075;-87
2021/10/01 10:31:18;;;;;;;0.10;0.10;;;;;;;17.50;60.90;101398.94;5092767;28;20496;-85
2021/10/01 10:44:48;;;;;;;0.03;0.03;;;;;;;17.43;60.15;101396.50;5069741;28;20833;-84
2021/10/01 10:48:05;;;;;;;2.20;2.08;;;;;;;17.57;60.53;101392.38;5047385;28;20125;-95
2021/10/01 10:53:26;;;;;;;7.03;5.78;;;;;;;17.44;61.19;101384.84;5068753;28;20935;-86
2021/10/01 10:56:04;;;;;;;7.65;2.03;;;;;;;17.50;61.08;101383.72;5066921;28;20399;-94
2021/10/01 11:04:17;;;;;;;0.10;0.10;;;;;;;17.72;61.44;101375.69;5081853;27;20398;-95
2021/10/01 11:06:44;;;;;;;1.55;1.25;;;;;;;17.79;61.34;101369.16;5060784;28;20030;-95
2021/10/01 11:09:24;;;;;;;0.20;0.20;;;;;;;17.95;60.86;101373.88;5058524;28;20035;-85
2021/10/01 11:11:54;;;;;;;0.10;0.10;;;;;;;17.93;61.38;101365.88;5060945;28;20029;-94
2021/10/01 11:14:22;;;;;;;0.10;0.10;;;;;;;17.99;61.33;101363.91;5061783;28;20029;-96
2021/10/01 11:22:38;;;;;;;0.25;0.25;;;;;;;18.31;60.36;101361.63;5081004;28;20484;-96
2021/10/01 11:27:58;;;;;;;0.10;0.10;;;;;;;18.49;59.78;101350.09;5083426;27;20550;-93
2021/10/01 11:30:27;;;;;;;0.65;0.63;;;;;;;18.51;59.48;101363.41;5070016;28;20025;-94
2021/10/01 11:32:53;;;;;;;0.10;0.10;;;;;;;18.45;58.86;101352.97;5067226;28;20017;-95
2021/10/01 11:35:20;;;;;;;0.10;0.10;;;;;;;18.48;59.45;101344.75;5058217;28;20352;-93
2021/10/01 11:37:48;;;;;;;0.10;0.10;;;;;;;18.54;60.03;101342.69;5050538;28;20056;-91
2021/10/01 11:40:24;;;;;;;0.10;0.10;;;;;;;18.50;59.32;101367.91;5030053;28;20029;-92
2021/10/01 11:42:54;;;;;;;0.17;0.17;;;;;;;18.31;59.68;101358.94;5048881;28;20029;-94
2021/10/01 11:48:08;;;;;;;0.10;0.10;;;;;;;18.19;59.32;101354.97;5070259;28;20425;-90
2021/10/01 11:50:41;;;;;;;0.03;0.03;;;;;;;18.24;59.46;101361.00;5070100;28;20067;-88
2021/10/01 11:53:19;;;;;;;0.15;0.15;;;;;;;18.21;59.41;101345.94;5070381;28;20032;-88
2021/10/01 11:58:34;;;;;;;0.10;0.10;;;;;;;18.45;59.80;101340.41;5090572;27;20410;-88
2021/10/01 12:01:18;;;;;;;0.10;0.10;;;;;;;18.48;58.82;101336.72;5070510;28;20395;-91
2021/10/01 12:03:49;;;;;;;0.10;0.10;;;;;;;18.48;58.91;101332.22;5070077;28;20518;-85
2021/10/01 12:06:20;;;;;;;0.20;0.20;;;;;;;18.46;58.61;101331.41;5042181;28;20025;-89
2021/10/01 12:09:06;;;;;;;0.17;0.17;;;;;;;18.65;57.84;101330.59;5038418;28;20025;-89
2021/10/01 12:11:35;;;;;;;0.10;0.10;;;;;;;18.74;57.67;101339.09;5039723;28;20030;-91
2021/10/01 12:17:06;;;;;;;0.10;0.10;;;;;;;18.86;57.65;101331.41;5090768;28;20170;-90
2021/10/01 12:19:33;;;;;;;0.10;0.10;;;;;;;18.82;57.63;101329.81;5070576;28;20056;-89
2021/10/01 12:24:51;;;;;;;0.00;0.00;;;;;;;18.89;57.05;101328.56;5083282;27;20155;-90
2021/10/01 12:27:19;;;;;;;0.10;0.10;;;;;;;18.98;56.88;101321.91;5070987;28;20043;-91
2021/10/01 12:29:48;;;;;;;0.38;0.38;;;;;;;18.95;57.99;101317.56;5070511;28;20025;-90
2021/10/01 12:32:16;;;;;;;0.90;0.90;;;;;;;18.91;58.33;101318.66;5069268;28;20032;-91
2021/10/01 12:34:59;;;;;;;0.10;0.10;;;;;;;19.08;57.57;101326.78;5079484;22;20037;-82
2021/10/01 12:37:37;;;;;;;2.15;1.10;;;;;;;19.17;57.84;101327.28;5050848;28;20022;-83
2021/10/01 12:40:04;;;;;;;0.10;0.10;;;;;;;19.11;58.06;101319.53;5050052;28;20120;-82
2021/10/01 12:42:34;;;;;;;0.10;0.10;;;;;;;19.21;58.64;101324.34;5050754;28;20025;-83
2021/10/01 12:47:51;;;;;;;0.80;0.80;;;;;;;19.36;57.68;101319.19;5091085;28;20431;-82
2021/10/01 12:50:21;;;;;;;0.10;0.10;;;;;;;19.36;56.63;101317.34;5070570;28;20039;-83
2021/10/01 12:52:57;;;;;;;0.10;0.10;;;;;;;19.40;56.81;101310.91;5070682;28;20039;-83
2021/10/01 12:55:24;;;;;;;0.55;0.55;;;;;;;19.43;56.16;101317.94;5058569;28;20022;-83
2021/10/01 12:57:51;;;;;;;0.47;0.47;;;;;;;19.54;56.53;101320.09;5050906;28;20033;-83
2021/10/01 13:03:05;;;;;;;0.10;0.10;;;;;;;19.36;55.74;101322.72;5090888;27;20410;-82
2021/10/01 13:08:20;;;;;;;0.17;0.17;;;;;;;19.21;56.05;101331.56;5091056;28;20482;-83
2021/10/01 13:13:28;;;;;;;0.75;0.75;;;;;;;18.98;58.47;101348.75;5071173;28;20735;-83
2021/10/01 13:18:40;;;;;;;0.15;0.15;;;;;;;18.64;61.55;101340.47;5091334;28;20459;-81
2021/10/01 13:21:10;;;;;;;0.10;0.10;;;;;;;18.51;62.51;101325.84;5070917;28;20056;-82
2021/10/01 13:23:47;;;;;;;0.00;0.00;;;;;;;18.37;63.12;101324.66;5069209;28;20060;-81
2021/10/01 13:29:05;;;;;;;0.10;0.10;;;;;;;18.47;62.79;101311.72;5090954;28;20905;-82
2021/10/01 13:31:38;;;;;;;0.10;0.10;;;;;;;18.31;63.51;101308.84;5069472;28;20037;-83
2021/10/01 13:34:05;;;;;;;0.08;0.08;;;;;;;18.29;63.04;101310.72;5068671;28;20423;-83
2021/10/01 13:36:32;;;;;;;0.00;0.00;;;;;;;18.35;62.83;101305.06;5050550;28;20021;-81
2021/10/01 13:38:59;;;;;;;2.17;1.98;;;;;;;18.24;63.43;101307.38;5050798;28;20029;-82
2021/10/01 13:41:26;;;;;;;0.82;0.75;;;;;;;18.15;62.53;101305.13;5050719;28;20480;-82
2021/10/01 13:43:53;;;;;;;0.10;0.10;;;;;;;18.22;62.64;101291.34;5050966;28;20033;-83
2021/10/01 13:46:21;;;;;;;0.57;0.57;;;;;;;18.30;62.19;101290.13;5050569;28;20029;-82
2021/10/01 13:48:48;;;;;;;0.10;0.10;;;;;;;18.26;62.94;101289.41;5050547;28;20025;-82
2021/10/01 13:51:15;;;;;;;0.10;0.10;;;;;;;18.25;63.16;101283.16;5050451;28;20064;-83
2021/10/01 13:53:41;;;;;;;0.10;0.10;;;;;;;18.33;62.37;101285.50;5050561;28;20032;-82
2021/10/01 13:56:08;;;;;;;0.00;0.00;;;;;;;18.32;62.74;101278.41;5050472;28;20025;-83
2021/10/01 13:58:35;;;;;;;0.10;0.10;;;;;;;18.31;61.64;101281.16;5050139;28;20040;-83
2021/10/01 14:01:02;;;;;;;0.10;0.10;;;;;;;18.36;62.21;101271.94;5050471;28;20033;-82
2021/10/01 14:03:28;;;;;;;0.10;0.10;;;;;;;18.41;61.55;101274.41;5050571;28;20029;-82
2021/10/01 14:05:56;;;;;;;0.10;0.10;;;;;;;18.43;61.94;101268.03;5050355;28;20040;-83
2021/10/01 14:08:22;;;;;;;0.10;0.10;;;;;;;18.51;61.59;101272.19;5048468;28;20412;-83
2021/10/01 14:10:49;;;;;;;0.10;0.10;;;;;;;18.40;61.25;101268.16;5049854;28;20029;-83
2021/10/01 14:13:15;;;;;;;0.10;0.10;;;;;;;18.27;61.32;101275.06;5050026;28;20380;-82
2021/10/01 14:15:44;;;;;;;0.38;0.38;;;;;;;18.39;61.25;101274.50;5049918;28;20087;-83
2021/10/01 14:18:12;;;;;;;0.10;0.10;;;;;;;18.22;61.30;101272.59;5050295;28;20033;-83
2021/10/01 14:20:39;;;;;;;1.10;1.10;;;;;;;18.29;61.48;101265.13;5049748;28;20515;-83
2021/10/01 14:23:07;;;;;;;0.10;0.10;;;;;;;18.40;61.05;101264.63;5050239;28;20029;-83